Time;durP1;ratioP1;P1;durP2;ratioP2;P2;SDS_P1;SDS_P2;PMS_P1;PMS_P2;Temp;Humidity;BMP_temperature;BMP_pressure;BME280_temperature;BME280_humidity;BME280_pressure;Samples;Min_cycle;Max_cycle;Signal;HPM_P1;HPM_P2
2023/01/30 00:00:25;;;;;;;25.42;16.13;;;-2.10;76.60;;;;;;4995390;28;20032;-77
2023/01/30 00:02:50;;;;;;;24.75;14.55;;;-2.10;76.70;;;;;;4995268;28;20470;-76
2023/01/30 00:05:17;;;;;;;24.48;14.80;;;-2.10;76.80;;;;;;4995426;28;20402;-76
2023/01/30 00:07:43;;;;;;;25.58;14.80;;;-2.10;76.80;;;;;;4995533;28;20164;-76
2023/01/30 00:10:09;;;;;;;26.50;15.13;;;-2.10;76.40;;;;;;4991200;28;20069;-76
2023/01/30 00:12:35;;;;;;;21.98;14.05;;;-2.10;76.10;;;;;;4994441;28;20434;-76
2023/01/30 00:15:00;;;;;;;27.60;15.57;;;-2.10;75.90;;;;;;4995443;28;20026;-75
2023/01/30 00:17:26;;;;;;;25.13;14.52;;;-2.10;76.20;;;;;;4998373;28;20470;-76
2023/01/30 00:19:51;;;;;;;26.13;15.20;;;-2.20;76.20;;;;;;4998272;28;20079;-76
2023/01/30 00:22:17;;;;;;;26.13;15.35;;;-2.20;76.30;;;;;;4999190;28;20120;-77
2023/01/30 00:24:42;;;;;;;26.50;15.70;;;-2.20;76.20;;;;;;4998596;28;20030;-76
2023/01/30 00:27:08;;;;;;;30.60;17.80;;;-2.10;76.10;;;;;;4998948;28;20481;-77
2023/01/30 00:29:33;;;;;;;29.73;16.65;;;-2.20;75.80;;;;;;4999124;28;20022;-76
2023/01/30 00:32:09;;;;;;;30.92;16.38;;;-2.30;76.20;;;;;;4999326;28;20430;-77
2023/01/30 00:34:35;;;;;;;27.40;16.02;;;-2.30;75.80;;;;;;4999058;28;20450;-77
2023/01/30 00:37:00;;;;;;;24.83;15.05;;;-2.30;75.90;;;;;;4998700;28;20053;-77
2023/01/30 00:39:34;;;;;;;26.10;14.38;;;-2.30;76.10;;;;;;4998803;28;20034;-78
2023/01/30 00:50:05;;;;;;;22.08;13.82;;;-2.20;75.00;;;;;;4334522;26;20084;-77
2023/01/30 00:52:30;;;;;;;23.85;14.25;;;-2.10;74.80;;;;;;5036061;28;20119;-77
2023/01/30 00:54:56;;;;;;;26.80;14.90;;;-2.20;74.90;;;;;;5034732;28;20029;-76
2023/01/30 00:57:22;;;;;;;22.33;14.10;;;-2.10;75.00;;;;;;5035728;28;20040;-77
2023/01/30 01:02:46;;;;;;;;;;;-2.20;75.20;;;;;;4778995;26;20077;-78
2023/01/30 01:05:42;;;;;;;23.70;12.90;;;-2.10;74.90;;;;;;4998090;28;19920;-77
2023/01/30 01:08:08;;;;;;;20.33;11.95;;;-2.10;74.40;;;;;;4998738;28;20022;-78
2023/01/30 01:13:11;;;;;;;21.15;13.38;;;-2.20;74.40;;;;;;5529038;22;20057;-76
2023/01/30 01:15:36;;;;;;;24.77;14.07;;;-2.20;74.50;;;;;;5016029;28;20048;-76
2023/01/30 01:18:02;;;;;;;22.70;13.43;;;-2.20;74.30;;;;;;4998546;28;20030;-76
2023/01/30 01:20:28;;;;;;;24.90;13.18;;;-2.20;73.90;;;;;;4998546;28;20461;-78
2023/01/30 01:22:55;;;;;;;23.90;13.82;;;-2.20;73.90;;;;;;5015912;28;20465;-76
2023/01/30 01:25:23;;;;;;;22.20;13.18;;;-2.20;74.20;;;;;;4998256;28;20057;-75
2023/01/30 01:27:48;;;;;;;20.30;12.38;;;-2.20;74.10;;;;;;4997394;28;20022;-76
2023/01/30 01:30:14;;;;;;;21.90;12.80;;;-2.10;73.80;;;;;;4998134;28;20124;-76
2023/01/30 01:32:40;;;;;;;21.45;13.00;;;-2.10;73.40;;;;;;4998089;28;20026;-77
2023/01/30 01:35:06;;;;;;;19.73;12.07;;;-2.10;73.30;;;;;;4998178;28;20026;-75
2023/01/30 01:37:32;;;;;;;19.92;11.95;;;-2.00;73.30;;;;;;4997856;28;20084;-76
2023/01/30 01:42:41;;;;;;;22.00;13.23;;;-2.10;72.50;;;;;;5015161;28;20042;-76
2023/01/30 01:45:21;;;;;;;22.00;13.35;;;-2.10;72.40;;;;;;4997701;28;20038;-75
2023/01/30 01:47:58;;;;;;;22.88;12.68;;;-2.10;72.50;;;;;;4997877;28;20021;-76
2023/01/30 01:50:38;;;;;;;22.17;12.60;;;-2.10;72.40;;;;;;5015318;28;20033;-75
2023/01/30 01:53:05;;;;;;;19.00;11.57;;;-2.00;72.50;;;;;;4997242;28;20026;-76
2023/01/30 01:55:31;;;;;;;20.75;12.13;;;-2.00;72.50;;;;;;4997392;28;20112;-76
2023/01/30 01:58:05;;;;;;;18.48;10.77;;;-2.00;72.60;;;;;;4997585;28;20495;-76
2023/01/30 02:00:31;;;;;;;20.70;10.90;;;-2.00;72.80;;;;;;4997348;28;20021;-78
2023/01/30 02:03:06;;;;;;;14.95;9.93;;;-2.00;72.80;;;;;;4997166;28;20118;-77
2023/01/30 02:05:36;;;;;;;17.85;10.25;;;-2.00;72.50;;;;;;4997200;28;20033;-78
2023/01/30 02:08:18;;;;;;;17.38;10.73;;;-2.10;72.70;;;;;;4997578;28;20076;-78
2023/01/30 02:10:56;;;;;;;17.10;10.43;;;-2.10;72.90;;;;;;4997628;28;20465;-78
2023/01/30 02:13:22;;;;;;;17.17;10.05;;;-2.00;73.00;;;;;;4997077;28;20571;-76
2023/01/30 02:15:49;;;;;;;17.10;10.73;;;-2.10;73.00;;;;;;4997348;28;20129;-77
2023/01/30 02:18:15;;;;;;;16.90;10.93;;;-2.10;73.50;;;;;;4997329;28;20498;-76
2023/01/30 02:21:12;;;;;;;15.00;10.07;;;-2.20;73.50;;;;;;4997043;28;20034;-76
2023/01/30 02:23:53;;;;;;;18.08;10.98;;;-2.30;73.50;;;;;;4997351;28;20206;-76
2023/01/30 02:26:53;;;;;;;17.27;10.75;;;-2.30;73.70;;;;;;4997257;28;20103;-76
2023/01/30 02:29:58;;;;;;;18.17;11.70;;;-2.30;73.90;;;;;;4996913;28;20026;-75
2023/01/30 02:32:55;;;;;;;18.20;10.85;;;-2.40;74.00;;;;;;4997179;28;20022;-76
2023/01/30 02:36:11;;;;;;;19.83;11.57;;;-2.40;74.10;;;;;;4996882;28;20026;-75
2023/01/30 02:39:05;;;;;;;20.15;11.60;;;-2.30;74.40;;;;;;4992604;28;20455;-76
2023/01/30 02:42:03;;;;;;;16.95;10.20;;;-2.20;74.30;;;;;;4996867;28;20454;-75
2023/01/30 02:44:39;;;;;;;18.00;11.15;;;-2.10;74.90;;;;;;4966562;28;20133;-75
2023/01/30 02:47:24;;;;;;;16.85;10.82;;;-2.10;73.90;;;;;;4996901;28;20032;-75
2023/01/30 02:50:19;;;;;;;19.67;11.73;;;-2.20;73.50;;;;;;4996589;28;20113;-75
2023/01/30 02:52:46;;;;;;;19.35;11.45;;;-2.30;73.80;;;;;;4994734;28;20116;-75
2023/01/30 02:55:21;;;;;;;20.88;12.80;;;-2.30;74.00;;;;;;4996701;28;20029;-75
2023/01/30 02:57:46;;;;;;;21.10;13.00;;;-2.40;73.60;;;;;;4996649;28;20025;-75
2023/01/30 03:00:16;;;;;;;23.17;11.68;;;-2.60;74.20;;;;;;4996085;28;20377;-75
2023/01/30 03:03:10;;;;;;;20.95;12.20;;;-2.60;74.60;;;;;;5013770;28;20025;-76
2023/01/30 03:05:51;;;;;;;20.70;13.07;;;-2.50;74.80;;;;;;4996509;28;20034;-75
2023/01/30 03:08:38;;;;;;;22.85;13.18;;;-2.50;74.70;;;;;;4996462;28;20029;-75
2023/01/30 03:11:09;;;;;;;22.35;13.80;;;-2.50;74.50;;;;;;4996435;28;20481;-75
2023/01/30 03:13:47;;;;;;;21.27;12.35;;;-2.50;74.40;;;;;;4996377;28;20065;-76
2023/01/30 03:16:16;;;;;;;23.50;13.63;;;-2.60;74.70;;;;;;4996160;28;20022;-76
2023/01/30 03:18:43;;;;;;;20.92;12.50;;;-2.60;75.10;;;;;;4996299;28;20116;-76
2023/01/30 03:21:10;;;;;;;19.45;12.52;;;-2.60;75.10;;;;;;4996188;28;20470;-75
2023/01/30 03:23:36;;;;;;;21.73;11.80;;;-2.60;75.40;;;;;;5013622;28;20034;-76
2023/01/30 03:26:04;;;;;;;19.15;11.00;;;-2.60;75.50;;;;;;4995921;28;20036;-76
2023/01/30 03:28:32;;;;;;;22.45;12.70;;;-2.60;75.50;;;;;;4996198;28;20108;-76
2023/01/30 03:30:57;;;;;;;18.60;11.25;;;-2.70;75.40;;;;;;4996095;28;20116;-76
2023/01/30 03:33:23;;;;;;;17.30;10.68;;;-2.70;75.70;;;;;;4995985;28;20105;-76
2023/01/30 03:35:49;;;;;;;20.00;11.40;;;-2.70;75.90;;;;;;4996028;28;20029;-76
2023/01/30 03:38:15;;;;;;;19.75;12.07;;;-2.60;76.10;;;;;;4995897;28;20025;-75
2023/01/30 03:40:41;;;;;;;19.42;11.45;;;-2.60;75.90;;;;;;5013450;28;20099;-75
2023/01/30 03:43:07;;;;;;;22.15;12.02;;;-2.60;75.70;;;;;;4996115;28;20048;-76
2023/01/30 03:45:32;;;;;;;20.38;12.02;;;-2.50;75.60;;;;;;4995980;28;20034;-76
2023/01/30 03:47:58;;;;;;;20.08;10.93;;;-2.50;75.30;;;;;;4995925;28;20029;-76
2023/01/30 03:50:23;;;;;;;19.05;11.55;;;-2.50;75.30;;;;;;4995448;28;20080;-77
2023/01/30 03:52:50;;;;;;;20.20;12.13;;;-2.50;75.10;;;;;;4995458;28;20507;-76
2023/01/30 03:55:16;;;;;;;18.95;11.15;;;-2.50;75.10;;;;;;4995651;28;20036;-75
2023/01/30 03:57:41;;;;;;;20.15;11.93;;;-2.50;75.40;;;;;;4995607;28;20121;-75
2023/01/30 04:00:08;;;;;;;20.80;11.77;;;-2.60;74.80;;;;;;4995741;28;20026;-75
2023/01/30 04:02:37;;;;;;;18.17;11.50;;;-2.70;75.10;;;;;;4995588;28;20036;-75
2023/01/30 04:05:03;;;;;;;20.52;12.10;;;-2.80;75.60;;;;;;4998276;28;20033;-75
2023/01/30 04:07:29;;;;;;;19.75;12.32;;;-3.00;76.20;;;;;;4996887;28;20033;-76
2023/01/30 04:09:54;;;;;;;20.83;11.93;;;-3.10;76.90;;;;;;4995829;28;20487;-75
2023/01/30 04:12:20;;;;;;;21.45;12.07;;;-3.20;77.30;;;;;;4995639;28;20085;-75
2023/01/30 04:14:45;;;;;;;18.27;11.60;;;-3.30;77.60;;;;;;4995636;28;20034;-75
2023/01/30 04:17:11;;;;;;;19.45;11.98;;;-3.30;77.80;;;;;;4995223;28;20487;-75
2023/01/30 04:19:36;;;;;;;18.48;11.48;;;-3.20;77.80;;;;;;4995408;28;20099;-75
2023/01/30 04:22:02;;;;;;;19.60;11.75;;;-3.20;77.80;;;;;;4995361;28;20475;-76
2023/01/30 04:24:28;;;;;;;17.95;10.85;;;-3.20;77.70;;;;;;4995401;28;20042;-78
2023/01/30 04:26:55;;;;;;;20.23;12.02;;;-3.10;77.90;;;;;;4994746;28;20026;-76
2023/01/30 04:29:21;;;;;;;19.92;11.88;;;-3.10;77.80;;;;;;4995258;28;20033;-75
2023/01/30 04:31:46;;;;;;;19.77;11.35;;;-3.00;78.00;;;;;;4995397;28;20113;-76
2023/01/30 04:34:12;;;;;;;19.10;12.50;;;-2.90;78.10;;;;;;4995373;28;20022;-77
2023/01/30 04:36:37;;;;;;;18.20;11.38;;;-2.80;78.10;;;;;;4995411;28;20033;-79
2023/01/30 04:39:03;;;;;;;18.38;11.70;;;-2.80;77.60;;;;;;4995163;28;20026;-77
2023/01/30 04:41:28;;;;;;;19.95;11.38;;;-2.70;77.20;;;;;;4995361;28;20068;-77
2023/01/30 04:43:54;;;;;;;20.73;12.32;;;-2.80;76.90;;;;;;4995353;28;20025;-77
2023/01/30 04:46:20;;;;;;;19.05;11.65;;;-2.70;77.00;;;;;;4995209;28;20112;-77
2023/01/30 04:48:45;;;;;;;20.77;12.52;;;-2.70;77.00;;;;;;4995372;28;20057;-78
2023/01/30 04:51:11;;;;;;;21.38;12.35;;;-2.60;76.90;;;;;;4995011;28;20076;-77
2023/01/30 04:53:36;;;;;;;22.85;13.90;;;-2.60;76.70;;;;;;4994265;28;20030;-77
2023/01/30 04:56:04;;;;;;;22.52;14.23;;;-2.50;76.70;;;;;;4978569;28;20390;-76
2023/01/30 04:58:29;;;;;;;21.40;12.77;;;-2.50;76.40;;;;;;4994694;28;20120;-76
2023/01/30 05:00:55;;;;;;;22.23;13.05;;;-2.50;76.30;;;;;;4994666;28;20461;-77
2023/01/30 05:03:21;;;;;;;19.92;12.50;;;-2.50;76.30;;;;;;4996419;28;20045;-78
2023/01/30 05:05:47;;;;;;;20.33;12.55;;;-2.50;76.20;;;;;;4982141;28;20176;-76
2023/01/30 05:08:14;;;;;;;21.55;12.70;;;-2.50;76.00;;;;;;4998383;28;20022;-76
2023/01/30 05:10:40;;;;;;;21.75;12.82;;;-2.60;75.90;;;;;;4998234;28;20402;-76
2023/01/30 05:13:06;;;;;;;23.42;13.13;;;-2.70;76.10;;;;;;4995115;28;20061;-75
2023/01/30 05:15:32;;;;;;;20.48;12.80;;;-2.60;76.20;;;;;;4996478;28;20089;-76
2023/01/30 05:17:58;;;;;;;21.30;12.02;;;-2.70;75.40;;;;;;4995079;28;20038;-76
2023/01/30 05:20:25;;;;;;;19.52;11.65;;;-2.70;75.40;;;;;;4995154;28;20081;-76
2023/01/30 05:22:51;;;;;;;22.17;13.07;;;-2.70;75.50;;;;;;4995020;28;20061;-77
2023/01/30 05:25:16;;;;;;;21.75;12.45;;;-2.60;75.50;;;;;;4994797;28;20510;-77
2023/01/30 05:27:42;;;;;;;19.27;12.35;;;-2.60;75.30;;;;;;4994709;28;20431;-77
2023/01/30 05:30:08;;;;;;;21.25;12.60;;;-2.60;75.20;;;;;;4995037;28;20029;-78
2023/01/30 05:32:35;;;;;;;19.17;11.63;;;-2.60;75.00;;;;;;4996314;28;20026;-78
2023/01/30 05:35:00;;;;;;;16.08;9.65;;;-2.60;74.70;;;;;;4994812;28;20031;-78
2023/01/30 05:37:26;;;;;;;17.67;10.10;;;-2.60;74.50;;;;;;4994954;28;20030;-76
2023/01/30 05:39:52;;;;;;;16.40;9.45;;;-2.60;74.50;;;;;;4994636;28;20434;-76
2023/01/30 05:42:17;;;;;;;19.38;10.63;;;-2.60;74.50;;;;;;4958752;28;20063;-76
2023/01/30 05:44:43;;;;;;;17.88;10.88;;;-2.50;74.50;;;;;;4975079;28;20039;-76
2023/01/30 05:47:09;;;;;;;22.30;11.50;;;-2.50;74.30;;;;;;4974824;28;20113;-76
2023/01/30 05:49:36;;;;;;;19.63;11.50;;;-2.60;74.10;;;;;;4974354;28;20404;-77
2023/01/30 05:52:01;;;;;;;18.52;11.27;;;-2.70;74.80;;;;;;4974732;28;20114;-77
2023/01/30 05:54:27;;;;;;;17.98;10.45;;;-2.80;75.20;;;;;;4974671;28;20458;-76
2023/01/30 05:56:53;;;;;;;21.05;10.93;;;-2.80;75.50;;;;;;4958684;28;20039;-76
2023/01/30 05:59:18;;;;;;;23.25;12.13;;;-2.70;76.40;;;;;;4974473;28;20023;-76
2023/01/30 06:01:44;;;;;;;22.17;12.82;;;-2.60;75.40;;;;;;4974897;28;20384;-76
2023/01/30 06:04:09;;;;;;;23.52;13.02;;;-2.50;75.20;;;;;;4974301;28;20034;-76
2023/01/30 06:06:35;;;;;;;25.10;12.90;;;-2.40;75.10;;;;;;4974722;28;20019;-77
2023/01/30 06:09:01;;;;;;;23.15;12.23;;;-2.40;74.70;;;;;;4974509;28;20030;-77
2023/01/30 06:11:27;;;;;;;22.15;10.85;;;-2.30;74.70;;;;;;4974751;28;20472;-77
2023/01/30 06:13:52;;;;;;;19.83;10.35;;;-2.30;74.50;;;;;;4974394;28;20043;-77
2023/01/30 06:16:18;;;;;;;15.00;9.15;;;-2.30;74.80;;;;;;4995080;28;20026;-78
2023/01/30 06:18:47;;;;;;;18.10;10.68;;;-2.30;74.70;;;;;;4994811;28;20579;-79
2023/01/30 06:21:14;;;;;;;16.98;10.18;;;-2.20;74.40;;;;;;4993739;28;20117;-77
2023/01/30 06:23:40;;;;;;;14.77;8.88;;;-2.20;74.10;;;;;;4993256;28;20057;-77
2023/01/30 06:26:06;;;;;;;15.93;9.20;;;-2.10;73.90;;;;;;4993473;28;20483;-76
2023/01/30 06:28:32;;;;;;;17.98;9.98;;;-2.10;74.30;;;;;;4993784;28;20022;-74
2023/01/30 06:30:58;;;;;;;17.73;9.13;;;-2.00;75.60;;;;;;4977287;28;20026;-78
2023/01/30 06:33:24;;;;;;;27.27;10.32;;;-1.80;75.60;;;;;;4993547;28;20018;-76
2023/01/30 06:35:51;;;;;;;23.27;11.15;;;-1.70;77.00;;;;;;4993879;28;20112;-74
2023/01/30 06:38:17;;;;;;;18.48;9.93;;;-0.80;90.10;;;;;;4993780;28;20034;-75
2023/01/30 06:40:44;;;;;;;15.30;9.02;;;-0.10;86.80;;;;;;4993709;28;20514;-74
2023/01/30 06:43:10;;;;;;;13.27;8.70;;;0.70;78.40;;;;;;4993436;28;20031;-74
2023/01/30 06:45:36;;;;;;;14.85;9.20;;;1.50;73.20;;;;;;4992393;28;20137;-72
2023/01/30 06:48:02;;;;;;;13.93;8.82;;;2.20;67.60;;;;;;4994607;28;20106;-72
2023/01/30 06:50:29;;;;;;;12.90;8.13;;;2.50;64.60;;;;;;4993206;28;20116;-73
2023/01/30 06:52:55;;;;;;;10.63;7.18;;;2.70;62.80;;;;;;4994533;28;20022;-72
2023/01/30 06:55:23;;;;;;;11.00;6.82;;;3.00;60.20;;;;;;4993280;28;20387;-72
2023/01/30 06:57:49;;;;;;;8.30;5.75;;;3.00;58.80;;;;;;4992934;28;20026;-76
2023/01/30 07:00:17;;;;;;;11.15;6.30;;;2.60;55.20;;;;;;4992837;28;20132;-75
2023/01/30 07:02:44;;;;;;;9.23;5.38;;;2.00;54.60;;;;;;4992701;28;20022;-76
2023/01/30 07:05:11;;;;;;;7.22;4.45;;;1.50;56.60;;;;;;4993021;28;20038;-76
2023/01/30 07:07:37;;;;;;;10.27;5.82;;;1.10;58.10;;;;;;4992714;28;20043;-77
2023/01/30 07:10:05;;;;;;;8.27;4.80;;;0.90;59.40;;;;;;4992994;28;20054;-76
2023/01/30 07:12:31;;;;;;;12.43;6.93;;;0.60;60.40;;;;;;4989733;28;20198;-77
2023/01/30 07:14:56;;;;;;;10.13;5.82;;;0.50;61.40;;;;;;4973205;28;20113;-78
2023/01/30 07:17:22;;;;;;;10.43;5.45;;;0.40;63.60;;;;;;4972915;28;20392;-76
2023/01/30 07:19:48;;;;;;;8.23;4.85;;;0.40;64.80;;;;;;4973281;28;20033;-75
2023/01/30 07:22:15;;;;;;;5.85;3.70;;;0.40;65.20;;;;;;4973297;28;20030;-75
2023/01/30 07:24:41;;;;;;;7.30;4.40;;;0.40;64.80;;;;;;4973070;28;20039;-77
2023/01/30 07:27:09;;;;;;;7.65;4.97;;;0.40;64.40;;;;;;4972859;28;20019;-76
2023/01/30 07:29:35;;;;;;;6.93;4.40;;;0.50;64.60;;;;;;4974602;28;20026;-75
2023/01/30 07:32:01;;;;;;;6.63;4.40;;;0.50;64.70;;;;;;4978728;28;20085;-75
2023/01/30 07:34:27;;;;;;;7.80;4.55;;;0.50;64.90;;;;;;4973196;28;20026;-75
2023/01/30 07:36:53;;;;;;;9.07;5.03;;;0.50;65.10;;;;;;4973247;28;20022;-75
2023/01/30 07:39:18;;;;;;;6.03;4.18;;;0.50;65.50;;;;;;4973117;28;20055;-75
2023/01/30 07:41:44;;;;;;;5.13;3.53;;;0.60;65.80;;;;;;4973176;28;20076;-76
2023/01/30 07:44:10;;;;;;;7.60;3.88;;;0.70;66.90;;;;;;4974310;28;20030;-74
2023/01/30 07:46:37;;;;;;;5.55;3.70;;;0.80;67.10;;;;;;4957554;28;20051;-74
2023/01/30 07:49:04;;;;;;;6.88;3.70;;;1.00;67.60;;;;;;4973245;28;20074;-77
2023/01/30 07:51:30;;;;;;;6.45;4.10;;;1.00;67.40;;;;;;4972692;28;20443;-75
2023/01/30 07:53:56;;;;;;;7.55;3.88;;;1.10;67.50;;;;;;4972924;28;20035;-78
2023/01/30 07:56:22;;;;;;;9.00;4.00;;;1.20;66.90;;;;;;4972756;28;20030;-79
2023/01/30 07:58:49;;;;;;;8.38;4.28;;;1.20;67.20;;;;;;4972633;28;20030;-77
2023/01/30 08:01:16;;;;;;;5.75;4.03;;;1.20;68.00;;;;;;4972887;28;20484;-77
2023/01/30 08:03:43;;;;;;;6.70;3.60;;;1.20;68.50;;;;;;4972625;28;20395;-77
2023/01/30 08:06:09;;;;;;;5.50;3.67;;;1.30;69.00;;;;;;4973056;28;20034;-77
2023/01/30 08:08:34;;;;;;;4.93;3.10;;;1.20;69.60;;;;;;4972592;28;20027;-77
2023/01/30 08:11:00;;;;;;;4.75;3.03;;;1.30;71.00;;;;;;4972641;28;20476;-76
2023/01/30 08:13:26;;;;;;;4.72;3.20;;;1.40;71.10;;;;;;5000567;28;20085;-77
2023/01/30 08:15:51;;;;;;;5.10;3.40;;;1.50;71.10;;;;;;4995283;28;20034;-77
2023/01/30 08:18:17;;;;;;;3.95;2.67;;;1.70;71.10;;;;;;4995049;28;20029;-78
2023/01/30 08:20:43;;;;;;;4.85;3.13;;;1.70;71.00;;;;;;4995413;28;20033;-77
2023/01/30 08:23:10;;;;;;;5.07;3.25;;;1.80;70.80;;;;;;4995360;28;20029;-77
2023/01/30 08:25:36;;;;;;;3.92;2.83;;;1.90;70.20;;;;;;5012840;28;20049;-77
2023/01/30 08:28:03;;;;;;;5.22;3.33;;;2.00;69.30;;;;;;5012767;28;20022;-77
2023/01/30 08:30:29;;;;;;;5.68;3.33;;;2.10;68.80;;;;;;4994865;28;20022;-77
2023/01/30 08:32:56;;;;;;;4.70;2.88;;;2.20;68.30;;;;;;4995183;28;20025;-77
2023/01/30 08:35:22;;;;;;;4.85;2.85;;;2.20;67.60;;;;;;4995135;28;20025;-77
2023/01/30 08:37:48;;;;;;;4.30;3.00;;;2.20;67.60;;;;;;4997111;28;20116;-78
2023/01/30 08:40:13;;;;;;;5.88;3.20;;;2.20;67.70;;;;;;4998701;28;20080;-77
2023/01/30 08:42:42;;;;;;;4.07;2.72;;;2.10;68.90;;;;;;5016393;28;20060;-77
2023/01/30 08:45:08;;;;;;;4.00;2.60;;;2.10;68.70;;;;;;4998235;28;20038;-77
2023/01/30 08:47:34;;;;;;;3.75;2.53;;;2.10;69.40;;;;;;4998903;28;20566;-76
2023/01/30 08:50:00;;;;;;;3.78;2.65;;;2.10;69.60;;;;;;5016636;28;20054;-77
2023/01/30 08:52:26;;;;;;;4.80;2.70;;;2.20;69.70;;;;;;4998542;28;20065;-77
2023/01/30 08:54:51;;;;;;;4.95;2.95;;;2.20;69.70;;;;;;4998741;28;20610;-77
2023/01/30 08:57:18;;;;;;;4.80;3.17;;;2.30;69.90;;;;;;5016067;28;20025;-76
2023/01/30 08:59:44;;;;;;;3.70;2.33;;;2.30;69.80;;;;;;4998769;28;20029;-77
2023/01/30 09:02:11;;;;;;;3.03;1.92;;;2.40;69.80;;;;;;4998493;28;20021;-77
2023/01/30 09:04:36;;;;;;;2.95;2.10;;;2.40;69.70;;;;;;4998016;28;20120;-77
2023/01/30 09:07:02;;;;;;;4.00;2.72;;;2.40;69.80;;;;;;4998228;28;20161;-76
2023/01/30 09:09:28;;;;;;;3.17;2.17;;;2.40;69.60;;;;;;5015760;28;20033;-77
2023/01/30 09:11:54;;;;;;;3.33;2.53;;;2.40;69.40;;;;;;5015789;28;20030;-76
2023/01/30 09:14:21;;;;;;;3.42;2.35;;;2.40;69.50;;;;;;4998265;28;20096;-76
2023/01/30 09:16:54;;;;;;;3.33;2.40;;;2.50;69.40;;;;;;4998207;28;20471;-75
2023/01/30 09:19:24;;;;;;;3.35;2.10;;;2.50;70.40;;;;;;4998330;28;20033;-77
2023/01/30 09:21:51;;;;;;;3.00;2.10;;;2.50;70.10;;;;;;4997782;28;20537;-77
2023/01/30 09:24:18;;;;;;;3.15;2.30;;;2.50;70.40;;;;;;4997176;28;20136;-77
2023/01/30 09:26:45;;;;;;;3.25;2.25;;;2.70;70.50;;;;;;4982179;28;20088;-78
2023/01/30 09:29:11;;;;;;;3.78;2.10;;;3.00;69.40;;;;;;5015747;28;20029;-78
2023/01/30 09:31:37;;;;;;;3.65;2.15;;;3.30;68.80;;;;;;4997952;28;20418;-78
2023/01/30 09:34:03;;;;;;;2.90;1.90;;;3.60;68.00;;;;;;4997742;28;20026;-77
2023/01/30 09:36:29;;;;;;;2.28;1.70;;;3.70;68.20;;;;;;4997715;28;20022;-77
2023/01/30 09:38:56;;;;;;;2.80;1.52;;;3.90;67.50;;;;;;5015555;28;20065;-77
2023/01/30 09:41:41;;;;;;;2.15;1.30;;;4.00;66.80;;;;;;4998097;28;20060;-77
2023/01/30 09:44:29;;;;;;;1.95;1.13;;;4.00;66.10;;;;;;5015759;28;20034;-77
2023/01/30 09:47:07;;;;;;;3.20;1.30;;;4.10;66.70;;;;;;5015730;28;20050;-77
2023/01/30 09:49:54;;;;;;;1.55;1.42;;;4.00;66.20;;;;;;4997410;28;20034;-77
2023/01/30 09:52:29;;;;;;;1.60;1.33;;;3.90;66.30;;;;;;4998513;28;20119;-76
2023/01/30 09:55:10;;;;;;;2.45;1.58;;;3.70;67.40;;;;;;4998184;28;20021;-76
2023/01/30 09:57:36;;;;;;;2.25;1.30;;;3.70;66.90;;;;;;4997573;28;20040;-76
2023/01/30 10:00:15;;;;;;;3.00;1.83;;;3.80;67.20;;;;;;5000738;28;20017;-77
2023/01/30 10:02:48;;;;;;;2.63;1.70;;;4.10;66.00;;;;;;5001972;28;20036;-78
2023/01/30 10:05:14;;;;;;;2.13;1.50;;;4.40;65.00;;;;;;4984409;28;20038;-78
2023/01/30 10:08:07;;;;;;;2.53;1.83;;;4.60;63.80;;;;;;5019601;28;20022;-77
2023/01/30 10:11:15;;;;;;;3.17;1.77;;;4.70;63.40;;;;;;5000207;28;20037;-76
2023/01/30 10:14:05;;;;;;;3.03;1.85;;;4.20;65.50;;;;;;4997105;28;20084;-76
2023/01/30 10:16:44;;;;;;;2.97;1.88;;;3.80;67.00;;;;;;4997244;28;20022;-76
2023/01/30 10:19:43;;;;;;;2.85;1.40;;;3.80;67.60;;;;;;4997631;28;20084;-76
2023/01/30 10:22:15;;;;;;;1.83;1.48;;;4.00;67.90;;;;;;4983929;28;20475;-77
2023/01/30 10:25:02;;;;;;;2.17;1.42;;;4.20;67.00;;;;;;4996961;28;20157;-76
2023/01/30 10:27:31;;;;;;;3.65;1.77;;;4.50;65.30;;;;;;4997669;28;20029;-77
2023/01/30 10:30:01;;;;;;;1.45;1.35;;;4.80;64.40;;;;;;4997168;28;20066;-78
2023/01/30 10:32:32;;;;;;;1.77;1.33;;;4.60;64.60;;;;;;4997223;28;20072;-77
2023/01/30 10:35:15;;;;;;;2.15;1.30;;;4.60;64.70;;;;;;4997798;28;20545;-78
2023/01/30 10:37:57;;;;;;;1.88;1.52;;;4.30;65.90;;;;;;5000907;28;20034;-78
2023/01/30 10:40:37;;;;;;;1.40;1.02;;;4.10;66.90;;;;;;4997250;28;20022;-77
2023/01/30 10:43:09;;;;;;;1.70;1.35;;;4.20;67.50;;;;;;5002190;28;20483;-78
2023/01/30 10:45:42;;;;;;;1.58;1.10;;;4.20;67.60;;;;;;4996988;28;20034;-77
2023/01/30 10:48:57;;;;;;;2.80;1.58;;;4.30;67.40;;;;;;4997196;28;20022;-77
2023/01/30 10:51:42;;;;;;;2.67;1.45;;;4.20;67.70;;;;;;4984212;28;20096;-76
2023/01/30 10:54:43;;;;;;;1.63;1.25;;;4.30;67.40;;;;;;4996913;28;20030;-78
2023/01/30 10:57:18;;;;;;;1.60;1.30;;;4.40;66.90;;;;;;4934459;29;20485;-77
2023/01/30 11:00:09;;;;;;;1.60;1.50;;;4.30;66.90;;;;;;4987357;28;20449;-77
2023/01/30 11:02:47;;;;;;;3.38;2.40;;;4.20;67.00;;;;;;4995970;28;20030;-77
2023/01/30 11:05:33;;;;;;;3.03;1.92;;;4.20;67.10;;;;;;5310720;23;20506;-77
2023/01/30 11:07:58;;;;;;;1.90;1.70;;;4.40;66.20;;;;;;5015895;28;20029;-77
2023/01/30 11:10:26;;;;;;;4.50;2.00;;;4.60;65.10;;;;;;5033694;28;20062;-77
2023/01/30 11:12:56;;;;;;;4.85;2.40;;;4.70;64.50;;;;;;5033460;28;20048;-77
2023/01/30 11:15:25;;;;;;;4.75;2.33;;;5.00;63.90;;;;;;5033483;28;20022;-78
2023/01/30 11:18:04;;;;;;;3.15;2.25;;;4.90;63.20;;;;;;5033525;28;20105;-78
2023/01/30 11:20:29;;;;;;;3.90;2.38;;;4.90;63.00;;;;;;5033116;28;20025;-77
2023/01/30 11:23:08;;;;;;;2.92;2.22;;;4.90;63.40;;;;;;5033287;28;20026;-78
2023/01/30 11:25:55;;;;;;;3.35;2.47;;;4.80;63.50;;;;;;5033323;28;20029;-77
2023/01/30 11:28:22;;;;;;;3.08;2.58;;;4.70;64.10;;;;;;5033723;28;20112;-78
2023/01/30 11:30:59;;;;;;;3.97;2.60;;;4.60;64.30;;;;;;5033536;28;20030;-79
2023/01/30 11:33:33;;;;;;;4.78;3.05;;;4.60;64.40;;;;;;5033196;28;20021;-77
2023/01/30 11:36:22;;;;;;;4.25;2.75;;;4.50;64.80;;;;;;5033217;28;20060;-77
2023/01/30 11:39:17;;;;;;;3.67;2.90;;;4.40;65.70;;;;;;5033161;28;20479;-77
2023/01/30 11:42:00;;;;;;;4.07;2.60;;;4.30;66.60;;;;;;5032918;28;20120;-76
2023/01/30 11:44:34;;;;;;;4.47;2.63;;;4.20;66.70;;;;;;5033139;28;20128;-77
2023/01/30 11:47:22;;;;;;;4.50;3.05;;;4.10;67.30;;;;;;5033256;28;20028;-76
2023/01/30 12:05:56;;;;;;;5.60;3.05;;;4.40;66.90;;;;;;5216192;22;19928;-76
2023/01/30 12:08:31;;;;;;;5.18;3.20;;;4.40;67.10;;;;;;4976220;28;20033;-76
2023/01/30 12:11:00;;;;;;;3.92;2.20;;;4.40;67.20;;;;;;4993519;28;20118;-77
2023/01/30 12:13:45;;;;;;;4.00;2.55;;;4.40;67.20;;;;;;4978799;28;20066;-76
2023/01/30 12:16:14;;;;;;;4.10;2.45;;;4.30;67.90;;;;;;4979853;28;20033;-78
2023/01/30 12:18:54;;;;;;;3.80;2.63;;;4.30;68.10;;;;;;4979678;28;20030;-77
2023/01/30 12:27:24;;;;;;;;;;;4.50;68.30;;;;;;5070996;23;20032;-79
2023/01/30 12:35:12;;;;;;;3.35;2.65;;;4.30;69.10;;;;;;4997144;28;20578;-75
2023/01/30 12:37:55;;;;;;;6.35;2.75;;;4.20;69.20;;;;;;4979426;28;20034;-75
2023/01/30 12:43:29;;;;;;;;;;;;;;;;;;;;;
2023/01/30 12:46:09;;;;;;;4.57;2.78;;;4.10;70.40;;;;;;5036302;28;20041;-76
2023/01/30 12:55:08;;;;;;;3.90;3.00;;;4.20;69.60;;;;;;5154043;23;20071;-77
2023/01/30 12:57:58;;;;;;;5.15;3.20;;;4.10;70.20;;;;;;5057837;28;20060;-79
2023/01/30 13:00:41;;;;;;;5.35;3.55;;;4.00;70.40;;;;;;5076010;28;20071;-76
2023/01/30 13:03:48;;;;;;;6.85;3.97;;;4.00;71.10;;;;;;5076183;28;20051;-77
2023/01/30 13:06:36;;;;;;;5.18;3.38;;;4.20;71.70;;;;;;5057688;28;20036;-75
2023/01/30 13:09:26;;;;;;;4.70;3.33;;;5.20;68.50;;;;;;5057826;28;20546;-77
2023/01/30 13:12:09;;;;;;;5.78;3.22;;;5.70;64.60;;;;;;5057721;28;20071;-76
2023/01/30 13:15:12;;;;;;;6.35;3.75;;;5.30;64.90;;;;;;5057529;28;20020;-76
2023/01/30 13:17:43;;;;;;;5.30;3.33;;;5.00;65.50;;;;;;5075411;28;20111;-76
2023/01/30 13:20:15;;;;;;;5.20;3.38;;;5.10;66.00;;;;;;5057446;28;20029;-76
2023/01/30 13:22:56;;;;;;;7.30;3.83;;;5.40;64.50;;;;;;5057539;28;20025;-76
2023/01/30 13:25:41;;;;;;;5.03;3.53;;;5.60;64.60;;;;;;5056549;28;20037;-76
2023/01/30 13:28:17;;;;;;;5.45;3.53;;;5.70;64.60;;;;;;5075386;28;20104;-77
2023/01/30 13:30:44;;;;;;;4.85;3.65;;;7.20;59.50;;;;;;5075096;28;20032;-76
2023/01/30 13:33:13;;;;;;;5.82;3.10;;;8.10;56.20;;;;;;5057250;28;20135;-76
2023/01/30 13:36:14;;;;;;;3.60;2.90;;;8.50;54.20;;;;;;5057458;28;20111;-76
2023/01/30 13:38:58;;;;;;;4.57;2.60;;;7.50;56.10;;;;;;4993681;28;20033;-76
2023/01/30 13:41:28;;;;;;;6.93;2.65;;;6.70;58.40;;;;;;5068312;28;20481;-76
2023/01/30 13:43:53;;;;;;;5.40;2.95;;;6.60;59.60;;;;;;5075138;28;20393;-78
2023/01/30 13:46:25;;;;;;;3.38;2.58;;;6.90;59.40;;;;;;5074797;28;20028;-76
2023/01/30 13:48:56;;;;;;;3.40;2.50;;;6.80;58.50;;;;;;5074852;28;20532;-76
2023/01/30 13:51:35;;;;;;;4.32;3.03;;;5.90;61.10;;;;;;5056925;28;20025;-76
2023/01/30 13:54:11;;;;;;;5.68;3.45;;;5.40;63.60;;;;;;5056689;28;20500;-76
2023/01/30 13:56:42;;;;;;;6.05;3.13;;;5.00;65.40;;;;;;5074912;28;20025;-76